createdAt,value
2023-05-14T00:01:32.722Z,98230.38
2023-05-14T00:03:59.804Z,98227.13
2023-05-14T00:06:27.263Z,98226.09
2023-05-14T00:08:54.370Z,98227.38
2023-05-14T00:11:21.812Z,98224.09
2023-05-14T00:13:49.658Z,98221.06
2023-05-14T00:16:16.795Z,98220.03
2023-05-14T00:18:44.089Z,98214.56
2023-05-14T00:21:11.108Z,98210.13
2023-05-14T00:23:38.275Z,98214.69
2023-05-14T00:26:05.315Z,98204.56
2023-05-14T00:28:32.284Z,98209.31
2023-05-14T00:30:59.378Z,98211.53
2023-05-14T00:33:26.330Z,98206.59
2023-05-14T00:35:53.329Z,98208.28
2023-05-14T00:38:20.439Z,98205.59
2023-05-14T00:40:51.772Z,98204.69
2023-05-14T00:43:21.136Z,98202.59
2023-05-14T00:45:51.208Z,98202.81
2023-05-14T00:48:18.700Z,98205.47
2023-05-14T00:50:45.847Z,98201.63
2023-05-14T00:53:13.432Z,98203.69
2023-05-14T00:55:42.657Z,98196.63
2023-05-14T00:58:14.288Z,98194.19
2023-05-14T01:00:42.254Z,98198.47
2023-05-14T01:03:12.392Z,98194.75
2023-05-14T01:06:13.999Z,98191.50
2023-05-14T01:09:01.548Z,98197.22
2023-05-14T01:12:01.166Z,98186.97
2023-05-14T01:14:57.102Z,98185.47
2023-05-14T01:17:30.320Z,98191.31
2023-05-14T01:19:57.894Z,98189.91
2023-05-14T01:22:24.852Z,98176.13
2023-05-14T01:24:51.915Z,98191.44
2023-05-14T01:28:05.579Z,98183.47
2023-05-14T01:30:46.208Z,98183.25
2023-05-14T01:33:18.120Z,98174.50
2023-05-14T01:35:45.745Z,98180.06
2023-05-14T01:38:17.318Z,98182.78
2023-05-14T01:40:46.556Z,98186.66
2023-05-14T01:43:14.473Z,98185.50
2023-05-14T01:45:42.795Z,98185.41
2023-05-14T01:48:10.135Z,98186.50
2023-05-14T01:50:37.184Z,98173.50
2023-05-14T01:53:04.205Z,98177.75
2023-05-14T01:55:31.691Z,98178.94
2023-05-14T01:57:58.828Z,98174.78
2023-05-14T02:00:26.344Z,98179.63
2023-05-14T02:02:54.271Z,98173.75
2023-05-14T02:05:21.629Z,98185.56
2023-05-14T02:07:48.668Z,98178.94
2023-05-14T02:10:16.263Z,98181.38
2023-05-14T02:12:43.335Z,98173.69
2023-05-14T02:15:11.102Z,98177.84
2023-05-14T02:17:38.458Z,98186.47
2023-05-14T02:20:06.373Z,98176.16
2023-05-14T02:22:33.403Z,98175.53
2023-05-14T02:25:01.062Z,98183.13
2023-05-14T02:27:28.261Z,98179.84
2023-05-14T02:29:56.575Z,98183.72
2023-05-14T02:32:23.700Z,98177.78
2023-05-14T02:34:50.827Z,98176.75
2023-05-14T02:37:17.799Z,98172.59
2023-05-14T02:39:44.842Z,98185.06
2023-05-14T02:42:11.856Z,98180.75
2023-05-14T02:44:38.866Z,98182.41
2023-05-14T02:47:06.140Z,98176.50
2023-05-14T02:49:33.404Z,98177.41
2023-05-14T02:52:00.936Z,98173.78
2023-05-14T02:54:27.914Z,98177.06
2023-05-14T02:56:54.970Z,98182.41
2023-05-14T02:59:23.615Z,98173.19
2023-05-14T03:01:51.235Z,98175.72
2023-05-14T03:04:18.770Z,98180.19
2023-05-14T03:06:45.825Z,98181.34
2023-05-14T03:09:12.831Z,98182.84
2023-05-14T03:11:40.084Z,98181.75
2023-05-14T03:14:07.065Z,98190.88
2023-05-14T03:16:34.144Z,98185.66
2023-05-14T03:19:01.320Z,98176.00
2023-05-14T03:21:28.451Z,98179.03
2023-05-14T03:23:55.437Z,98179.97
2023-05-14T03:26:22.400Z,98183.25
2023-05-14T03:28:53.069Z,98181.94
2023-05-14T03:31:20.113Z,98186.09
2023-05-14T03:33:47.350Z,98178.53
2023-05-14T03:36:14.363Z,98175.47
2023-05-14T03:38:41.299Z,98171.44
2023-05-14T03:41:08.661Z,98179.59
2023-05-14T03:43:36.098Z,98173.09
2023-05-14T03:46:03.118Z,98176.06
2023-05-14T03:48:30.433Z,98175.69
2023-05-14T03:50:57.715Z,98166.19
2023-05-14T03:53:25.082Z,98172.59
2023-05-14T03:55:52.034Z,98173.75
2023-05-14T03:58:18.988Z,98173.63
2023-05-14T04:00:46.016Z,98168.69
2023-05-14T04:03:13.573Z,98164.25
2023-05-14T04:05:40.684Z,98166.53
2023-05-14T04:08:07.857Z,98169.16
2023-05-14T04:10:34.856Z,98163.34
2023-05-14T04:13:02.226Z,98165.53
2023-05-14T04:15:32.975Z,98167.22
2023-05-14T04:18:00.070Z,98166.19
2023-05-14T04:20:27.892Z,98163.19
2023-05-14T04:22:55.120Z,98171.78
2023-05-14T04:25:22.225Z,98159.56
2023-05-14T04:27:49.627Z,98161.81
2023-05-14T04:30:16.654Z,98160.47
2023-05-14T04:32:44.521Z,98150.31
2023-05-14T04:35:12.353Z,98157.19
2023-05-14T04:37:40.437Z,98160.72
2023-05-14T04:40:11.343Z,98162.44
2023-05-14T04:42:38.928Z,98170.44
2023-05-14T04:45:07.093Z,98175.53
2023-05-14T04:47:34.607Z,98163.59
2023-05-14T04:50:04.864Z,98163.84
2023-05-14T04:52:32.081Z,98157.91
2023-05-14T04:54:59.249Z,98164.09
2023-05-14T04:57:26.251Z,98163.00
2023-05-14T04:59:53.272Z,98168.81
2023-05-14T05:02:20.298Z,98163.47
2023-05-14T05:04:47.313Z,98162.28
2023-05-14T05:07:14.649Z,98159.03
2023-05-14T05:09:42.983Z,98159.47
2023-05-14T05:12:10.475Z,98167.13
2023-05-14T05:14:37.412Z,98160.19
2023-05-14T05:17:04.552Z,98161.00
2023-05-14T05:19:42.416Z,98166.69
2023-05-14T05:22:10.556Z,98160.44
2023-05-14T05:24:37.700Z,98159.28
2023-05-14T05:27:05.547Z,98154.00
2023-05-14T05:29:32.577Z,98157.97
2023-05-14T05:31:59.710Z,98151.78
2023-05-14T05:34:26.868Z,98159.28
2023-05-14T05:36:53.849Z,98153.19
2023-05-14T05:39:20.896Z,98163.19
2023-05-14T05:41:47.944Z,98154.31
2023-05-14T05:44:14.866Z,98152.50
2023-05-14T05:46:44.257Z,98154.50
2023-05-14T05:49:11.249Z,98152.75
2023-05-14T05:51:38.804Z,98152.94
2023-05-14T05:54:06.002Z,98153.41
2023-05-14T05:56:32.995Z,98154.78
2023-05-14T05:59:00.006Z,98143.78
2023-05-14T06:01:27.311Z,98157.97
2023-05-14T06:03:57.211Z,98150.63
2023-05-14T06:06:24.180Z,98150.41
2023-05-14T06:08:51.333Z,98152.25
2023-05-14T06:11:18.476Z,98157.84
2023-05-14T06:13:45.411Z,98163.81
2023-05-14T06:16:12.434Z,98165.66
2023-05-14T06:18:39.571Z,98163.75
2023-05-14T06:21:06.621Z,98167.53
2023-05-14T06:23:34.382Z,98160.38
2023-05-14T06:26:01.325Z,98165.03
2023-05-14T06:28:28.483Z,98165.47
2023-05-14T06:30:55.874Z,98165.56
2023-05-14T06:33:29.765Z,98166.91
2023-05-14T06:36:00.927Z,98164.75
2023-05-14T06:38:28.034Z,98167.75
2023-05-14T06:40:55.008Z,98167.22
2023-05-14T06:43:22.469Z,98164.69
2023-05-14T06:45:50.500Z,98160.78
2023-05-14T06:48:18.952Z,98163.09
2023-05-14T06:50:47.468Z,98155.56
2023-05-14T06:53:14.598Z,98153.72
2023-05-14T06:55:41.630Z,98154.09
2023-05-14T06:58:09.297Z,98148.69
2023-05-14T07:00:36.313Z,98153.47
2023-05-14T07:03:03.390Z,98150.06
2023-05-14T07:05:30.630Z,98153.56
2023-05-14T07:07:57.617Z,98147.28
2023-05-14T07:10:25.147Z,98140.09
2023-05-14T07:12:52.388Z,98156.84
2023-05-14T07:15:19.399Z,98155.69
2023-05-14T07:17:46.492Z,98153.56
2023-05-14T07:20:14.078Z,98154.47
2023-05-14T07:22:41.068Z,98150.31
2023-05-14T07:25:08.649Z,98156.59
2023-05-14T07:27:35.647Z,98152.94
2023-05-14T07:30:02.862Z,98148.91
2023-05-14T07:32:29.877Z,98144.50
2023-05-14T07:34:57.024Z,98138.66
2023-05-14T07:37:25.952Z,98143.94
2023-05-14T07:39:53.776Z,98138.69
2023-05-14T07:42:34.405Z,98136.06
2023-05-14T07:45:03.012Z,98134.25
2023-05-14T07:47:30.100Z,98129.06
2023-05-14T07:49:57.792Z,98130.25
2023-05-14T07:52:25.350Z,98131.00
2023-05-14T07:54:52.585Z,98136.06
2023-05-14T07:57:20.040Z,98137.59
2023-05-14T07:59:48.844Z,98123.16
2023-05-14T08:02:16.983Z,98126.28
2023-05-14T08:04:44.387Z,98129.69
2023-05-14T08:07:11.883Z,98122.63
2023-05-14T08:09:38.902Z,98123.94
2023-05-14T08:12:06.817Z,98124.34
2023-05-14T08:14:33.973Z,98127.50
2023-05-14T08:17:01.161Z,98132.16
2023-05-14T08:19:28.607Z,98131.44
2023-05-14T08:21:55.608Z,98127.00
2023-05-14T08:24:22.710Z,98121.81
2023-05-14T08:26:49.804Z,98128.66
2023-05-14T08:29:17.012Z,98122.06
2023-05-14T08:31:44.171Z,98120.84
2023-05-14T08:34:11.227Z,98114.31
2023-05-14T08:36:39.201Z,98103.84
2023-05-14T08:39:07.785Z,98107.41
2023-05-14T08:41:35.729Z,98111.69
2023-05-14T08:44:15.114Z,98110.97
2023-05-14T08:46:42.641Z,98103.91
2023-05-14T08:49:27.175Z,98110.19
2023-05-14T08:51:54.565Z,98111.41
2023-05-14T08:54:23.719Z,98106.38
2023-05-14T08:56:52.417Z,98103.59
2023-05-14T08:59:20.529Z,98106.22
2023-05-14T09:01:50.042Z,98099.16
2023-05-14T09:04:23.301Z,98094.88
2023-05-14T09:06:53.543Z,98095.28
2023-05-14T09:09:24.130Z,98097.44
2023-05-14T09:11:53.870Z,98096.38
2023-05-14T09:14:23.238Z,98101.97
2023-05-14T09:16:51.792Z,98101.28
2023-05-14T09:19:19.445Z,98097.25
2023-05-14T09:21:47.828Z,98089.75
2023-05-14T09:24:24.115Z,98093.31
2023-05-14T09:26:57.164Z,98088.75
2023-05-14T09:29:29.175Z,98083.19
2023-05-14T09:31:58.059Z,98086.66
2023-05-14T09:34:30.801Z,98087.66
2023-05-14T09:37:01.341Z,98084.09
2023-05-14T09:39:29.599Z,98094.75
2023-05-14T09:41:57.004Z,98081.03
2023-05-14T09:44:24.888Z,98079.81
2023-05-14T09:46:53.583Z,98080.94
2023-05-14T09:49:21.335Z,98076.69
2023-05-14T09:51:51.638Z,98082.84
2023-05-14T09:54:18.751Z,98077.63
2023-05-14T09:56:45.879Z,98076.72
2023-05-14T09:59:12.916Z,98071.69
2023-05-14T10:01:43.355Z,98073.06
2023-05-14T10:04:11.552Z,98073.75
2023-05-14T10:06:39.866Z,98071.00
2023-05-14T10:09:13.360Z,98064.81
2023-05-14T10:11:44.358Z,98069.03
2023-05-14T10:14:32.761Z,98075.41
2023-05-14T10:17:01.959Z,98073.78
2023-05-14T10:19:35.325Z,98068.16
2023-05-14T10:22:08.317Z,98067.97
2023-05-14T10:24:38.780Z,98067.56
2023-05-14T10:27:06.087Z,98069.28
2023-05-14T10:29:37.989Z,98066.16
2023-05-14T10:32:07.232Z,98066.03
2023-05-14T10:34:41.202Z,98068.78
2023-05-14T10:37:12.261Z,98060.50
2023-05-14T10:40:00.017Z,98068.84
2023-05-14T10:42:37.662Z,98063.13
2023-05-14T10:45:11.342Z,98063.03
2023-05-14T10:47:41.041Z,98056.16
2023-05-14T10:50:11.192Z,98056.22
2023-05-14T10:52:38.328Z,98055.75
2023-05-14T10:55:13.028Z,98051.44
2023-05-14T10:57:43.384Z,98051.69
2023-05-14T11:00:13.787Z,98049.19
2023-05-14T11:02:43.318Z,98052.00
2023-05-14T11:05:14.340Z,98044.91
2023-05-14T11:07:47.878Z,98053.16
2023-05-14T11:10:20.574Z,98043.03
2023-05-14T11:12:50.041Z,98050.19
2023-05-14T11:15:20.299Z,98054.63
2023-05-14T11:17:48.969Z,98043.75
2023-05-14T11:20:19.669Z,98040.66
2023-05-14T11:22:48.882Z,98037.66
2023-05-14T11:25:17.038Z,98030.63
2023-05-14T11:27:46.116Z,98025.03
2023-05-14T11:30:19.214Z,98021.50
2023-05-14T11:32:48.514Z,98023.13
2023-05-14T11:35:16.938Z,98022.50
2023-05-14T11:37:49.360Z,98024.38
2023-05-14T11:40:17.008Z,98014.09
2023-05-14T11:42:44.378Z,98020.56
2023-05-14T11:45:13.098Z,98019.75
2023-05-14T11:47:42.299Z,98006.22
2023-05-14T11:50:10.062Z,98014.31
2023-05-14T11:52:41.656Z,98008.88
2023-05-14T11:55:12.894Z,98006.72
2023-05-14T11:57:40.963Z,98008.13
2023-05-14T12:00:21.008Z,98012.13
2023-05-14T12:02:51.809Z,98008.03
2023-05-14T12:05:19.235Z,98016.84
2023-05-14T12:07:47.460Z,98006.41
2023-05-14T12:10:15.466Z,97995.41
2023-05-14T12:12:47.562Z,98001.00
2023-05-14T12:15:16.928Z,97991.38
2023-05-14T12:17:50.601Z,97989.97
2023-05-14T12:20:18.345Z,97985.13
2023-05-14T12:22:45.332Z,97993.13
2023-05-14T12:25:14.141Z,97993.50
2023-05-14T12:27:44.900Z,97989.03
2023-05-14T12:30:27.421Z,97989.78
2023-05-14T12:32:54.553Z,97986.66
2023-05-14T12:35:22.835Z,97980.13
2023-05-14T12:37:50.229Z,97974.28
2023-05-14T12:40:17.285Z,97966.28
2023-05-14T12:42:44.509Z,97966.28
2023-05-14T12:45:11.929Z,97964.34
2023-05-14T12:47:39.099Z,97964.06
2023-05-14T12:50:06.996Z,97965.69
2023-05-14T12:52:38.632Z,97959.31
2023-05-14T12:55:08.926Z,97965.97
2023-05-14T12:57:36.108Z,97964.50
2023-05-14T13:00:07.049Z,97955.22
2023-05-14T13:02:42.011Z,97949.16
2023-05-14T13:05:11.346Z,97937.13
2023-05-14T13:07:39.056Z,97941.94
2023-05-14T13:10:07.133Z,97941.19
2023-05-14T13:12:34.327Z,97921.09
2023-05-14T13:15:01.739Z,97924.13
2023-05-14T13:17:28.771Z,97916.84
2023-05-14T13:19:56.035Z,97912.72
2023-05-14T13:22:23.140Z,97912.06
2023-05-14T13:24:50.303Z,97913.31
2023-05-14T13:27:17.456Z,97913.56
2023-05-14T13:29:44.431Z,97923.97
2023-05-14T13:32:11.602Z,97916.81
2023-05-14T13:34:38.680Z,97914.75
2023-05-14T13:37:06.064Z,97904.59
2023-05-14T13:39:33.009Z,97911.22
2023-05-14T13:42:01.098Z,97919.75
2023-05-14T13:44:28.138Z,97922.25
2023-05-14T13:46:55.259Z,97915.47
2023-05-14T13:49:22.524Z,97923.25
2023-05-14T13:51:49.464Z,97907.09
2023-05-14T13:54:16.468Z,97904.13
2023-05-14T13:56:43.622Z,97899.19
2023-05-14T13:59:11.214Z,97899.91
2023-05-14T14:01:38.303Z,97889.44
2023-05-14T14:04:05.495Z,97888.72
2023-05-14T14:06:33.238Z,97890.59
2023-05-14T14:09:00.511Z,97878.69
2023-05-14T14:11:27.902Z,97879.19
2023-05-14T14:13:55.281Z,97876.09
2023-05-14T14:16:22.263Z,97872.03
2023-05-14T14:18:49.395Z,97868.00
2023-05-14T14:21:18.257Z,97866.94
2023-05-14T14:23:49.026Z,97862.13
2023-05-14T14:26:16.382Z,97861.53
2023-05-14T14:28:43.683Z,97865.41
2023-05-14T14:31:11.475Z,97859.16
2023-05-14T14:33:38.492Z,97858.63
2023-05-14T14:36:06.629Z,97855.59
2023-05-14T14:38:33.583Z,97851.97
2023-05-14T14:41:02.954Z,97854.09
2023-05-14T14:43:29.934Z,97855.50
2023-05-14T14:45:56.961Z,97844.06
2023-05-14T14:48:38.018Z,97854.38
2023-05-14T14:51:09.133Z,97853.00
2023-05-14T14:53:37.188Z,97842.81
2023-05-14T14:56:04.788Z,97852.53
2023-05-14T14:58:32.121Z,97854.13
2023-05-14T15:01:01.609Z,97852.50
2023-05-14T15:03:29.293Z,97865.28
2023-05-14T15:05:57.043Z,97869.47
2023-05-14T15:08:28.291Z,97853.59
2023-05-14T15:10:56.525Z,97860.78
2023-05-14T15:13:24.586Z,97859.38
2023-05-14T15:15:55.040Z,97853.53
2023-05-14T15:18:22.060Z,97866.38
2023-05-14T15:20:49.544Z,97852.97
2023-05-14T15:23:16.639Z,97855.94
2023-05-14T15:25:43.683Z,97856.19
2023-05-14T15:28:10.899Z,97857.81
2023-05-14T15:30:37.909Z,97848.41
2023-05-14T15:33:07.934Z,97851.31
2023-05-14T15:35:35.139Z,97858.84
2023-05-14T15:38:02.230Z,97850.38
2023-05-14T15:40:29.578Z,97854.69
2023-05-14T15:42:56.716Z,97848.88
2023-05-14T15:45:23.861Z,97848.13
2023-05-14T15:47:51.073Z,97854.56
2023-05-14T15:50:18.262Z,97845.59
2023-05-14T15:52:45.486Z,97850.66
2023-05-14T15:55:12.582Z,97848.00
2023-05-14T15:57:39.738Z,97846.22
2023-05-14T16:00:13.697Z,97839.84
2023-05-14T16:02:41.180Z,97845.91
2023-05-14T16:05:08.682Z,97844.59
2023-05-14T16:07:36.735Z,97838.75
2023-05-14T16:10:04.216Z,97842.72
2023-05-14T16:12:31.732Z,97839.44
2023-05-14T16:15:00.045Z,97836.19
2023-05-14T16:17:28.163Z,97836.00
2023-05-14T16:19:56.511Z,97842.66
2023-05-14T16:22:24.113Z,97835.50
2023-05-14T16:24:51.337Z,97837.22
2023-05-14T16:27:21.606Z,97835.69
2023-05-14T16:29:49.019Z,97842.53
2023-05-14T16:32:16.067Z,97832.94
2023-05-14T16:34:49.605Z,97846.56
2023-05-14T16:37:17.603Z,97836.88
2023-05-14T16:39:44.580Z,97840.75
2023-05-14T16:42:11.788Z,97841.41
2023-05-14T16:44:38.864Z,97839.91
2023-05-14T16:47:06.033Z,97835.94
2023-05-14T16:49:32.971Z,97834.09
2023-05-14T16:52:00.058Z,97832.94
2023-05-14T16:54:27.093Z,97830.63
2023-05-14T16:56:54.406Z,97836.06
2023-05-14T16:59:21.422Z,97828.53
2023-05-14T17:01:48.557Z,97823.81
2023-05-14T17:04:16.043Z,97827.56
2023-05-14T17:06:43.112Z,97825.84
2023-05-14T17:09:10.148Z,97825.78
2023-05-14T17:11:37.331Z,97827.00
2023-05-14T17:14:04.579Z,97826.56
2023-05-14T17:16:31.546Z,97823.84
2023-05-14T17:18:58.670Z,97826.44
2023-05-14T17:21:25.799Z,97824.25
2023-05-14T17:23:52.907Z,97824.75
2023-05-14T17:26:19.913Z,97831.91
2023-05-14T17:28:46.879Z,97833.50
2023-05-14T17:31:14.388Z,97818.75
2023-05-14T17:33:41.391Z,97827.69
2023-05-14T17:36:08.665Z,97820.75
2023-05-14T17:38:36.116Z,97818.56
2023-05-14T17:41:03.145Z,97822.84
2023-05-14T17:43:30.391Z,97824.41
2023-05-14T17:45:57.386Z,97825.19
2023-05-14T17:48:24.714Z,97829.88
2023-05-14T17:50:52.143Z,97840.09
2023-05-14T17:53:19.363Z,97839.31
2023-05-14T17:55:46.457Z,97839.94
2023-05-14T17:58:16.141Z,97842.53
2023-05-14T18:00:44.025Z,97850.41
2023-05-14T18:03:11.468Z,97856.69
2023-05-14T18:05:38.805Z,97849.94
2023-05-14T18:08:06.561Z,97846.91
2023-05-14T18:10:33.823Z,97841.81
2023-05-14T18:13:01.498Z,97848.06
2023-05-14T18:15:29.483Z,97841.38
2023-05-14T18:17:57.138Z,97836.38
2023-05-14T18:20:24.191Z,97842.28
2023-05-14T18:22:52.275Z,97849.81
2023-05-14T18:25:19.364Z,97857.09
2023-05-14T18:27:47.008Z,97855.19
2023-05-14T18:30:15.577Z,97859.50
2023-05-14T18:32:44.476Z,97856.53
2023-05-14T18:35:12.793Z,97865.97
2023-05-14T18:37:40.858Z,97868.13
2023-05-14T18:40:08.730Z,97865.69
2023-05-14T18:42:37.926Z,97874.53
2023-05-14T18:45:05.183Z,97871.56
2023-05-14T18:47:33.235Z,97861.06
2023-05-14T18:50:02.025Z,97868.06
2023-05-14T18:52:29.366Z,97868.78
2023-05-14T18:54:56.723Z,97866.63
2023-05-14T18:57:23.969Z,97867.38
2023-05-14T18:59:51.258Z,97869.75
2023-05-14T19:02:18.302Z,97866.03
2023-05-14T19:04:52.448Z,97861.09
2023-05-14T19:07:21.243Z,97871.94
2023-05-14T19:09:48.872Z,97875.88
2023-05-14T19:12:16.248Z,97877.72
2023-05-14T19:14:43.660Z,97876.88
2023-05-14T19:17:10.973Z,97883.81
2023-05-14T19:19:39.242Z,97887.03
2023-05-14T19:22:06.673Z,97888.06
2023-05-14T19:24:33.927Z,97886.47
2023-05-14T19:27:01.220Z,97895.09
2023-05-14T19:29:28.206Z,97891.31
2023-05-14T19:31:55.492Z,97887.28
2023-05-14T19:34:22.508Z,97892.72
2023-05-14T19:36:49.881Z,97896.78
2023-05-14T19:39:16.867Z,97895.06
2023-05-14T19:41:43.976Z,97902.53
2023-05-14T19:44:11.032Z,97896.19
2023-05-14T19:46:38.142Z,97902.22
2023-05-14T19:49:07.679Z,97897.94
2023-05-14T19:51:34.750Z,97906.09
2023-05-14T19:54:01.740Z,97901.47
2023-05-14T19:56:28.754Z,97899.78
2023-05-14T19:58:55.798Z,97901.78
2023-05-14T20:01:23.052Z,97905.34
2023-05-14T20:03:50.090Z,97897.38
2023-05-14T20:06:17.510Z,97896.03
2023-05-14T20:08:45.496Z,97894.13
2023-05-14T20:11:12.623Z,97890.84
2023-05-14T20:13:39.562Z,97901.59
2023-05-14T20:16:06.710Z,97898.91
2023-05-14T20:18:33.885Z,97902.56
2023-05-14T20:21:01.573Z,97894.75
2023-05-14T20:23:28.683Z,97897.22
2023-05-14T20:25:55.733Z,97892.84
2023-05-14T20:28:22.910Z,97893.94
2023-05-14T20:30:50.080Z,97892.47
2023-05-14T20:33:17.345Z,97887.47
2023-05-14T20:35:44.423Z,97892.16
2023-05-14T20:38:12.804Z,97882.38
2023-05-14T20:40:40.263Z,97883.44
2023-05-14T20:43:07.253Z,97887.50
2023-05-14T20:45:34.238Z,97889.19
2023-05-14T20:48:01.642Z,97879.50
2023-05-14T20:50:28.867Z,97876.75
2023-05-14T20:52:55.978Z,97877.44
2023-05-14T20:55:23.552Z,97882.56
2023-05-14T20:57:50.982Z,97877.81
2023-05-14T21:00:18.831Z,97878.63
2023-05-14T21:02:46.447Z,97878.75
2023-05-14T21:05:13.982Z,97877.13
2023-05-14T21:07:41.059Z,97879.03
2023-05-14T21:10:09.987Z,97875.31
2023-05-14T21:12:37.074Z,97879.41
2023-05-14T21:15:04.683Z,97883.63
2023-05-14T21:17:31.950Z,97886.19
2023-05-14T21:19:58.885Z,97882.59
2023-05-14T21:22:27.407Z,97878.50
2023-05-14T21:24:55.658Z,97869.94
2023-05-14T21:27:22.927Z,97882.84
2023-05-14T21:29:49.955Z,97876.81
2023-05-14T21:32:17.007Z,97881.06
2023-05-14T21:34:44.124Z,97890.63
2023-05-14T21:37:11.258Z,97893.66
2023-05-14T21:39:38.203Z,97886.59
2023-05-14T21:42:05.498Z,97889.25
2023-05-14T21:44:32.459Z,97879.25
2023-05-14T21:46:59.623Z,97883.59
2023-05-14T21:49:26.637Z,97875.16
2023-05-14T21:51:54.580Z,97878.03
2023-05-14T21:54:21.682Z,97866.16
2023-05-14T21:56:48.864Z,97862.84
2023-05-14T21:59:15.909Z,97864.75
2023-05-14T22:04:13.313Z,97863.75
2023-05-14T22:06:40.530Z,97870.03
2023-05-14T22:09:10.442Z,97868.38
2023-05-14T22:11:37.653Z,97868.47
2023-05-14T22:14:04.717Z,97872.47
2023-05-14T22:16:32.739Z,97870.22
2023-05-14T22:18:59.843Z,97879.28
2023-05-14T22:21:26.856Z,97876.53
2023-05-14T22:23:53.804Z,97882.66
2023-05-14T22:26:22.957Z,97867.53
2023-05-14T22:28:50.050Z,97869.09
2023-05-14T22:31:17.191Z,97865.19
2023-05-14T22:33:44.233Z,97870.16
2023-05-14T22:36:11.214Z,97867.81
2023-05-14T22:38:38.994Z,97859.03
2023-05-14T22:41:06.073Z,97854.00
2023-05-14T22:43:33.047Z,97854.84
2023-05-14T22:46:00.357Z,97844.44
2023-05-14T22:48:27.483Z,97847.34
2023-05-14T22:50:54.445Z,97845.34
2023-05-14T22:53:21.549Z,97843.56
2023-05-14T22:55:48.667Z,97843.38
2023-05-14T22:58:15.702Z,97840.94
2023-05-14T23:00:42.697Z,97841.09
2023-05-14T23:03:09.808Z,97843.84
2023-05-14T23:05:36.934Z,97844.88
2023-05-14T23:08:03.913Z,97838.78
2023-05-14T23:10:31.240Z,97838.22
2023-05-14T23:12:58.180Z,97834.91
2023-05-14T23:15:25.529Z,97841.56
2023-05-14T23:17:53.028Z,97838.25
2023-05-14T23:20:20.098Z,97842.81
2023-05-14T23:22:47.056Z,97835.88
2023-05-14T23:25:14.047Z,97836.53
2023-05-14T23:27:41.340Z,97836.44
2023-05-14T23:30:08.935Z,97832.47
2023-05-14T23:32:36.062Z,97830.69
2023-05-14T23:35:03.429Z,97834.41
2023-05-14T23:37:30.719Z,97831.81
2023-05-14T23:39:57.884Z,97827.25
2023-05-14T23:42:25.027Z,97826.84
2023-05-14T23:44:51.963Z,97825.16
2023-05-14T23:47:19.023Z,97820.34
2023-05-14T23:49:46.146Z,97821.25
2023-05-14T23:52:13.283Z,97818.16
2023-05-14T23:54:40.399Z,97814.72
2023-05-14T23:57:07.623Z,97810.22
2023-05-14T23:59:34.574Z,97803.41
